Time;durP1;ratioP1;P1;durP2;ratioP2;P2;SDS_P1;SDS_P2;PMS_P1;PMS_P2;Temp;Humidity;BMP_temperature;BMP_pressure;BME280_temperature;BME280_humidity;BME280_pressure;Samples;Min_cycle;Max_cycle;Signal;HPM_P1;HPM_P2
2022/04/04 00:01:44;;;;;;;4.30;3.20;;;2.20;99.90;;;;;;5217387;28;20203;-49
2022/04/04 00:04:14;;;;;;;4.77;3.30;;;2.20;99.90;;;;;;5224436;28;20465;-48
2022/04/04 00:06:45;;;;;;;4.83;2.60;;;2.20;99.90;;;;;;5224484;28;20183;-49
2022/04/04 00:09:16;;;;;;;7.10;3.00;;;2.20;99.90;;;;;;5213460;28;20866;-49
2022/04/04 00:11:46;;;;;;;3.03;2.83;;;2.20;99.90;;;;;;5221813;28;20190;-49
2022/04/04 00:14:17;;;;;;;3.33;3.10;;;2.20;99.90;;;;;;5217803;28;20689;-49
2022/04/04 00:16:47;;;;;;;4.23;3.93;;;2.20;99.90;;;;;;5222577;28;20246;-49
2022/04/04 00:19:18;;;;;;;3.17;2.90;;;2.20;99.90;;;;;;5224017;28;20203;-49
2022/04/04 00:21:48;;;;;;;5.47;3.33;;;2.20;99.90;;;;;;5221992;28;20205;-49
2022/04/04 00:24:19;;;;;;;4.33;2.80;;;2.20;99.90;;;;;;5219736;28;20206;-52
2022/04/04 00:26:50;;;;;;;4.87;3.10;;;2.20;99.90;;;;;;5216346;28;20187;-49
2022/04/04 00:29:21;;;;;;;3.00;2.80;;;2.20;99.90;;;;;;5221291;28;20221;-49
2022/04/04 00:31:53;;;;;;;3.73;2.50;;;2.30;99.90;;;;;;5221695;28;20437;-49
2022/04/04 00:34:23;;;;;;;5.33;2.60;;;2.30;99.90;;;;;;5226648;28;20882;-49
2022/04/04 00:36:54;;;;;;;3.40;3.20;;;2.30;99.90;;;;;;5221469;28;20520;-50
2022/04/04 00:39:26;;;;;;;7.20;3.60;;;2.40;99.90;;;;;;5227918;28;20186;-48
2022/04/04 00:41:56;;;;;;;6.60;3.03;;;2.40;99.90;;;;;;5226780;28;20207;-49
2022/04/04 00:44:27;;;;;;;3.60;3.40;;;2.40;99.90;;;;;;5212633;28;20450;-49
2022/04/04 00:46:58;;;;;;;3.23;3.03;;;2.40;99.90;;;;;;5223354;28;20209;-48
2022/04/04 00:49:28;;;;;;;3.83;3.23;;;2.40;99.90;;;;;;5219720;28;20203;-50
2022/04/04 00:51:59;;;;;;;3.20;3.10;;;2.50;99.90;;;;;;5219618;28;20588;-49
2022/04/04 00:54:29;;;;;;;3.77;3.47;;;2.50;99.90;;;;;;5220771;28;20212;-49
2022/04/04 00:57:01;;;;;;;3.03;2.87;;;2.50;99.90;;;;;;5226440;28;20190;-48
2022/04/04 00:59:32;;;;;;;3.43;3.17;;;2.50;99.90;;;;;;5208290;28;20256;-50
2022/04/04 01:02:04;;;;;;;4.10;3.33;;;2.50;99.90;;;;;;5220276;28;20463;-49
2022/04/04 01:04:35;;;;;;;4.93;3.03;;;2.50;99.90;;;;;;5224931;28;20461;-51
2022/04/04 01:07:05;;;;;;;3.03;2.93;;;2.50;99.90;;;;;;5208787;28;20630;-48
2022/04/04 01:09:37;;;;;;;3.20;2.83;;;2.50;99.90;;;;;;5225027;28;20190;-48
2022/04/04 01:12:12;;;;;;;3.27;3.13;;;2.40;99.90;;;;;;5215010;28;20184;-49
2022/04/04 01:14:48;;;;;;;3.53;3.33;;;2.50;99.90;;;;;;5220558;28;20497;-48
2022/04/04 01:17:21;;;;;;;3.50;3.20;;;2.50;99.90;;;;;;5218925;28;20437;-48
2022/04/04 01:19:52;;;;;;;2.77;2.67;;;2.50;99.90;;;;;;5217075;28;20951;-49
2022/04/04 01:22:24;;;;;;;3.47;2.97;;;2.40;99.90;;;;;;5224973;28;20460;-48
2022/04/04 01:24:56;;;;;;;3.80;3.13;;;2.40;99.90;;;;;;5222241;28;20211;-50
2022/04/04 01:27:26;;;;;;;3.87;3.50;;;2.30;99.90;;;;;;5224578;28;20433;-49
2022/04/04 01:29:57;;;;;;;3.93;3.53;;;2.30;99.90;;;;;;5224246;28;20947;-51
2022/04/04 01:32:27;;;;;;;3.00;2.90;;;2.20;99.90;;;;;;5223289;28;20186;-48
2022/04/04 01:34:58;;;;;;;4.10;3.00;;;2.20;99.90;;;;;;5223391;28;20207;-50
2022/04/04 01:37:28;;;;;;;6.60;4.33;;;2.20;99.90;;;;;;5224632;28;20541;-49
2022/04/04 01:39:59;;;;;;;4.27;3.97;;;2.10;99.90;;;;;;5221365;28;20199;-48
2022/04/04 01:42:30;;;;;;;4.20;3.83;;;2.20;99.90;;;;;;5221023;28;20199;-49
2022/04/04 01:45:01;;;;;;;3.90;3.70;;;2.20;99.90;;;;;;5224624;28;20214;-48
2022/04/04 01:47:32;;;;;;;4.70;4.30;;;2.10;99.90;;;;;;5218111;28;20920;-50
2022/04/04 01:50:04;;;;;;;3.93;3.63;;;2.00;99.90;;;;;;5224165;28;20180;-51
2022/04/04 01:52:35;;;;;;;5.87;4.27;;;2.00;99.90;;;;;;5220788;28;20183;-51
2022/04/04 01:55:05;;;;;;;4.47;4.17;;;2.00;99.90;;;;;;5216539;28;20480;-49
2022/04/04 01:57:36;;;;;;;4.50;3.30;;;2.00;99.90;;;;;;5222554;28;20191;-51
2022/04/04 02:00:07;;;;;;;6.90;4.20;;;1.90;99.90;;;;;;5222700;28;20448;-49
2022/04/04 02:02:38;;;;;;;3.80;3.50;;;1.90;99.90;;;;;;5218433;28;20242;-49
2022/04/04 02:05:08;;;;;;;4.67;3.90;;;1.80;99.90;;;;;;5223188;28;20458;-49
2022/04/04 02:07:39;;;;;;;5.43;4.23;;;1.80;99.90;;;;;;5225175;28;20794;-50
2022/04/04 02:10:09;;;;;;;4.90;4.57;;;1.80;99.90;;;;;;5222069;28;20187;-48
2022/04/04 02:12:40;;;;;;;3.93;3.50;;;1.80;99.90;;;;;;5225784;28;20604;-49
2022/04/04 02:15:10;;;;;;;6.77;4.43;;;1.90;99.90;;;;;;5217388;28;20258;-52
2022/04/04 02:17:41;;;;;;;4.67;4.30;;;1.80;99.90;;;;;;5211974;28;20237;-49
2022/04/04 02:20:12;;;;;;;3.80;3.70;;;1.80;99.90;;;;;;5217037;28;20193;-50
2022/04/04 02:22:42;;;;;;;8.77;4.20;;;2.00;99.90;;;;;;5224464;28;20481;-48
2022/04/04 02:25:13;;;;;;;7.73;4.57;;;2.00;99.90;;;;;;5218129;28;20203;-51
2022/04/04 02:27:44;;;;;;;14.93;4.60;;;2.00;99.90;;;;;;5223791;28;20266;-48
2022/04/04 02:30:14;;;;;;;5.37;4.47;;;2.10;99.90;;;;;;5217748;28;20262;-49
2022/04/04 02:32:45;;;;;;;4.37;3.97;;;2.00;99.90;;;;;;5224058;28;20761;-49
2022/04/04 02:35:16;;;;;;;4.67;4.37;;;2.10;99.90;;;;;;5217520;28;20235;-49
2022/04/04 02:37:47;;;;;;;4.93;4.60;;;2.00;99.90;;;;;;5226784;28;20656;-50
2022/04/04 02:40:17;;;;;;;5.30;4.80;;;2.00;99.90;;;;;;5224039;28;20447;-49
2022/04/04 02:42:48;;;;;;;6.13;3.80;;;2.00;99.90;;;;;;5217194;28;20471;-48
2022/04/04 02:45:19;;;;;;;5.20;4.50;;;2.00;99.90;;;;;;5224199;28;20208;-48
2022/04/04 02:47:49;;;;;;;4.73;4.40;;;1.90;99.90;;;;;;5225208;28;20430;-48
2022/04/04 02:50:20;;;;;;;4.93;4.50;;;1.90;99.90;;;;;;5220005;28;20565;-48
2022/04/04 02:52:51;;;;;;;4.80;4.40;;;1.90;99.90;;;;;;5217558;28;20182;-50
2022/04/04 02:58:10;;;;;;;7.07;5.03;;;1.80;99.90;;;;;;5221816;28;20433;-50
2022/04/04 03:00:42;;;;;;;5.20;4.80;;;1.80;99.90;;;;;;5216143;28;20785;-50
2022/04/04 03:03:12;;;;;;;9.27;5.17;;;1.80;99.90;;;;;;5223703;28;20305;-48
2022/04/04 03:05:43;;;;;;;6.97;4.50;;;1.90;99.90;;;;;;5221532;28;20843;-49
2022/04/04 03:08:14;;;;;;;5.53;5.03;;;1.80;99.90;;;;;;5223430;28;20277;-49
2022/04/04 03:10:45;;;;;;;7.20;4.47;;;1.80;99.90;;;;;;5220658;28;20225;-57
2022/04/04 03:13:15;;;;;;;9.53;5.23;;;1.80;99.90;;;;;;5212871;28;20187;-48
2022/04/04 03:15:46;;;;;;;5.00;4.63;;;1.80;99.90;;;;;;5256900;22;20933;-50
2022/04/04 03:18:16;;;;;;;7.20;5.17;;;1.80;99.90;;;;;;5239108;28;20181;-49
2022/04/04 03:20:47;;;;;;;6.30;5.30;;;1.80;99.90;;;;;;5241375;28;21129;-49
2022/04/04 03:23:17;;;;;;;8.80;5.60;;;1.90;99.90;;;;;;5243908;28;20240;-49
2022/04/04 03:25:48;;;;;;;6.03;5.03;;;1.90;99.90;;;;;;5241406;28;20267;-50
2022/04/04 03:28:19;;;;;;;6.23;5.10;;;2.00;99.90;;;;;;5243323;28;20175;-49
2022/04/04 03:30:49;;;;;;;6.10;5.50;;;1.90;99.90;;;;;;5235530;28;20725;-50
2022/04/04 03:33:21;;;;;;;5.33;4.70;;;1.80;99.90;;;;;;5237894;28;20186;-50
2022/04/04 03:35:52;;;;;;;10.20;6.50;;;1.80;99.90;;;;;;5244616;28;20528;-49
2022/04/04 03:38:23;;;;;;;5.87;5.30;;;1.70;99.90;;;;;;5227610;28;20478;-50
2022/04/04 03:40:54;;;;;;;5.50;5.07;;;1.70;99.90;;;;;;5243024;28;20425;-50
2022/04/04 03:43:25;;;;;;;5.63;5.23;;;1.70;99.90;;;;;;5237540;28;20271;-50
2022/04/04 03:45:56;;;;;;;5.80;4.70;;;1.70;99.90;;;;;;5241780;28;20445;-50
2022/04/04 03:48:28;;;;;;;8.83;5.90;;;1.70;99.90;;;;;;5242851;28;20747;-51
2022/04/04 03:50:59;;;;;;;6.33;4.90;;;1.70;99.90;;;;;;5238858;28;20220;-50
2022/04/04 03:53:30;;;;;;;5.17;4.67;;;1.70;99.90;;;;;;5239742;28;20437;-49
2022/04/04 03:56:01;;;;;;;5.63;5.13;;;1.70;99.90;;;;;;5239104;28;20509;-50
2022/04/04 03:58:32;;;;;;;7.87;5.00;;;1.70;99.90;;;;;;5237006;28;20190;-51
2022/04/04 04:01:02;;;;;;;5.73;4.63;;;1.60;99.90;;;;;;5239544;28;20431;-50
2022/04/04 04:03:34;;;;;;;5.60;5.20;;;1.60;99.90;;;;;;5239370;28;20214;-50
2022/04/04 04:06:11;;;;;;;4.93;4.53;;;1.70;99.90;;;;;;5246792;28;20197;-51
2022/04/04 04:08:46;;;;;;;4.97;4.67;;;1.60;99.90;;;;;;5246770;28;20429;-50
2022/04/04 04:11:18;;;;;;;5.90;4.93;;;1.60;99.90;;;;;;5229867;28;20438;-49
2022/04/04 04:13:49;;;;;;;4.67;4.33;;;1.70;99.90;;;;;;5244487;28;20510;-51
2022/04/04 04:16:23;;;;;;;6.33;5.63;;;1.60;99.90;;;;;;5246485;28;20522;-49
2022/04/04 04:18:53;;;;;;;4.57;4.17;;;1.60;99.90;;;;;;5253466;28;20439;-50
2022/04/04 04:21:24;;;;;;;4.83;4.50;;;1.60;99.90;;;;;;5249468;28;20447;-50
2022/04/04 04:23:54;;;;;;;4.80;4.50;;;1.60;99.90;;;;;;5250559;28;20262;-50
2022/04/04 04:26:25;;;;;;;4.73;4.33;;;1.50;99.90;;;;;;5245369;28;20184;-50
2022/04/04 04:28:55;;;;;;;6.57;4.43;;;1.60;99.90;;;;;;5249069;28;20197;-50
2022/04/04 04:31:26;;;;;;;5.67;4.60;;;1.60;99.90;;;;;;5240674;28;20597;-51
2022/04/04 04:33:57;;;;;;;5.20;4.80;;;1.60;99.90;;;;;;5249962;28;20269;-48
2022/04/04 04:36:27;;;;;;;5.73;5.03;;;1.60;99.90;;;;;;5246824;28;20198;-49
2022/04/04 04:38:58;;;;;;;7.27;4.97;;;1.70;99.90;;;;;;5246187;28;20436;-50
2022/04/04 04:41:28;;;;;;;5.17;4.67;;;1.70;99.90;;;;;;5241946;28;20198;-49
2022/04/04 04:44:02;;;;;;;5.83;5.27;;;1.60;99.90;;;;;;5258832;28;20178;-49
2022/04/04 04:46:33;;;;;;;6.50;5.30;;;1.70;99.90;;;;;;5249689;28;20173;-48
2022/04/04 04:49:04;;;;;;;5.33;4.40;;;1.70;99.90;;;;;;5237031;28;21077;-50
2022/04/04 04:51:36;;;;;;;7.40;4.97;;;1.80;99.90;;;;;;5246125;28;20174;-49
2022/04/04 04:54:08;;;;;;;4.80;4.13;;;1.80;99.90;;;;;;5241839;28;20213;-50
2022/04/04 04:56:39;;;;;;;6.13;4.90;;;1.80;99.90;;;;;;5241843;28;20433;-49
2022/04/04 04:59:10;;;;;;;5.17;4.77;;;1.90;99.90;;;;;;5245976;28;20519;-51
2022/04/04 05:01:40;;;;;;;7.77;4.90;;;2.00;99.90;;;;;;5243385;28;20321;-50
2022/04/04 05:04:11;;;;;;;10.33;4.60;;;2.00;99.90;;;;;;5228275;28;20870;-50
2022/04/04 05:06:41;;;;;;;19.70;4.60;;;2.10;99.90;;;;;;5241969;28;20174;-49
2022/04/04 05:09:12;;;;;;;5.43;4.93;;;2.20;99.90;;;;;;5243768;28;20202;-52
2022/04/04 05:11:42;;;;;;;4.60;4.30;;;2.30;99.90;;;;;;5241555;28;20273;-50
2022/04/04 05:14:16;;;;;;;4.70;4.30;;;2.40;99.90;;;;;;5246881;28;20230;-50
2022/04/04 05:16:47;;;;;;;4.63;4.17;;;2.70;99.90;;;;;;5243225;28;20187;-51
2022/04/04 05:19:18;;;;;;;6.23;4.33;;;3.10;99.90;;;;;;5226585;28;20437;-51
2022/04/04 05:21:49;;;;;;;3.97;3.57;;;3.80;99.90;;;;;;5243708;28;20456;-49
2022/04/04 05:24:19;;;;;;;6.40;4.53;;;4.70;99.90;;;;;;5242943;28;20636;-51
2022/04/04 05:26:50;;;;;;;3.83;3.63;;;5.50;99.90;;;;;;5238544;28;20519;-51
2022/04/04 05:29:21;;;;;;;18.83;4.30;;;5.80;99.90;;;;;;5245398;28;20175;-50
2022/04/04 05:31:55;;;;;;;4.07;3.77;;;5.90;99.90;;;;;;5246990;28;20186;-50
2022/04/04 05:34:26;;;;;;;3.63;3.43;;;5.80;99.90;;;;;;5244087;28;20210;-50
2022/04/04 05:36:57;;;;;;;4.33;3.90;;;5.70;99.90;;;;;;5239050;28;20444;-49
2022/04/04 05:39:27;;;;;;;4.90;4.60;;;5.60;99.90;;;;;;5240621;28;20487;-51
2022/04/04 05:41:58;;;;;;;15.50;4.20;;;5.50;99.90;;;;;;5241874;28;20633;-51
2022/04/04 05:44:28;;;;;;;6.80;4.93;;;5.40;99.90;;;;;;5246696;28;20642;-50
2022/04/04 05:46:59;;;;;;;7.63;4.70;;;5.40;99.90;;;;;;5238892;28;20591;-51
2022/04/04 05:49:30;;;;;;;3.90;3.67;;;5.50;99.90;;;;;;5234408;28;20684;-55
2022/04/04 05:52:01;;;;;;;5.30;5.00;;;5.50;99.90;;;;;;5220602;28;20201;-52
2022/04/04 05:54:31;;;;;;;4.30;4.00;;;5.70;99.90;;;;;;5246517;28;20232;-49
2022/04/04 05:57:02;;;;;;;8.83;4.90;;;5.60;99.90;;;;;;5243526;28;20184;-49
2022/04/04 05:59:33;;;;;;;3.83;3.63;;;5.60;99.90;;;;;;5241650;28;20194;-51
2022/04/04 06:02:04;;;;;;;11.10;4.73;;;5.50;99.90;;;;;;5245930;28;20655;-50
2022/04/04 06:04:34;;;;;;;5.43;3.77;;;5.60;99.90;;;;;;5235956;28;20449;-48
2022/04/04 06:07:05;;;;;;;6.40;4.00;;;5.70;99.90;;;;;;5238570;28;20179;-50
2022/04/04 06:09:35;;;;;;;8.33;3.90;;;5.70;99.90;;;;;;5253610;28;20539;-51
2022/04/04 06:12:07;;;;;;;5.77;5.20;;;5.80;99.90;;;;;;5238480;28;20263;-50
2022/04/04 06:14:38;;;;;;;7.00;4.80;;;6.00;99.90;;;;;;5242389;28;20218;-51
2022/04/04 06:17:09;;;;;;;6.47;4.83;;;6.20;99.90;;;;;;5243235;28;20944;-49
2022/04/04 06:19:41;;;;;;;7.03;5.00;;;6.50;99.90;;;;;;5237381;28;20446;-50
2022/04/04 06:22:12;;;;;;;7.50;4.17;;;6.90;99.90;;;;;;5242534;28;20567;-51
2022/04/04 06:24:43;;;;;;;6.10;4.00;;;7.20;99.40;;;;;;5238014;28;20463;-50
2022/04/04 06:27:15;;;;;;;4.70;4.40;;;7.60;97.10;;;;;;5239399;28;20182;-50
2022/04/04 06:29:46;;;;;;;7.33;5.00;;;7.80;95.20;;;;;;5228975;28;20831;-50
2022/04/04 06:32:16;;;;;;;9.30;5.30;;;7.90;93.20;;;;;;5243649;28;21508;-51
2022/04/04 06:34:47;;;;;;;4.47;4.17;;;7.80;92.10;;;;;;5241682;28;20688;-50
2022/04/04 06:37:17;;;;;;;6.07;5.50;;;8.10;91.60;;;;;;5243291;28;20208;-51
2022/04/04 06:39:48;;;;;;;5.10;4.80;;;8.30;89.00;;;;;;5235444;28;20201;-51
2022/04/04 06:42:19;;;;;;;6.20;4.60;;;8.40;85.30;;;;;;5224026;28;20717;-50
2022/04/04 06:44:50;;;;;;;8.97;5.30;;;8.30;83.60;;;;;;5242179;28;20255;-50
2022/04/04 06:47:21;;;;;;;5.70;4.70;;;8.30;82.50;;;;;;5238917;28;20435;-50
2022/04/04 06:49:52;;;;;;;6.10;5.50;;;7.90;81.70;;;;;;5243884;28;20428;-49
2022/04/04 06:52:23;;;;;;;7.07;5.57;;;7.30;86.90;;;;;;5243934;28;20807;-50
2022/04/04 06:54:54;;;;;;;6.20;5.60;;;7.20;89.10;;;;;;5243358;28;20459;-49
2022/04/04 06:57:25;;;;;;;7.93;5.40;;;7.30;89.20;;;;;;5245504;28;20189;-51
2022/04/04 06:59:56;;;;;;;6.67;6.07;;;7.10;90.40;;;;;;5244911;28;20454;-50
2022/04/04 07:02:27;;;;;;;8.10;6.60;;;7.00;90.80;;;;;;5244740;28;20470;-51
2022/04/04 07:04:57;;;;;;;6.87;6.27;;;7.00;90.90;;;;;;5237796;28;20250;-49
2022/04/04 07:07:28;;;;;;;10.70;6.83;;;7.10;91.40;;;;;;5232111;28;20440;-50
2022/04/04 07:09:59;;;;;;;8.30;6.20;;;7.10;90.80;;;;;;5239559;28;20214;-51
2022/04/04 07:12:30;;;;;;;9.27;7.40;;;7.20;89.10;;;;;;5244499;28;20649;-51
2022/04/04 07:15:00;;;;;;;11.23;7.00;;;6.80;88.70;;;;;;5225412;28;20486;-52
2022/04/04 07:17:33;;;;;;;13.17;7.27;;;6.80;90.20;;;;;;5247058;28;20190;-53
2022/04/04 07:20:04;;;;;;;8.53;6.50;;;6.90;90.40;;;;;;5246284;28;20179;-57
2022/04/04 07:22:36;;;;;;;11.27;6.97;;;6.90;90.50;;;;;;5239681;28;20547;-51
2022/04/04 07:25:07;;;;;;;9.43;6.87;;;6.70;90.20;;;;;;5247068;28;20975;-50
2022/04/04 07:27:42;;;;;;;7.20;6.60;;;6.60;90.40;;;;;;5237600;28;20445;-51
2022/04/04 07:30:17;;;;;;;8.60;7.37;;;6.60;90.60;;;;;;5243964;28;20441;-51
2022/04/04 07:32:48;;;;;;;7.90;7.10;;;6.50;90.60;;;;;;5242854;28;20442;-51
2022/04/04 07:35:20;;;;;;;10.50;7.60;;;6.60;91.10;;;;;;5248881;28;20557;-52
2022/04/04 07:37:51;;;;;;;9.50;8.40;;;6.70;90.70;;;;;;5263304;28;20885;-52
2022/04/04 07:40:21;;;;;;;13.80;7.30;;;6.80;89.20;;;;;;5243139;28;20442;-51
2022/04/04 07:42:52;;;;;;;7.60;6.30;;;6.90;88.40;;;;;;5240375;28;20209;-52
2022/04/04 07:45:23;;;;;;;8.07;7.30;;;7.00;87.10;;;;;;5247133;28;20207;-52
2022/04/04 07:47:53;;;;;;;10.17;8.70;;;7.20;84.70;;;;;;5250967;28;20181;-52
2022/04/04 07:50:24;;;;;;;10.37;7.77;;;7.70;80.80;;;;;;5259166;28;20186;-50
2022/04/04 07:52:55;;;;;;;7.60;6.90;;;7.70;79.40;;;;;;5248130;28;20181;-51
2022/04/04 07:55:25;;;;;;;9.07;8.20;;;8.10;75.80;;;;;;5247271;28;20233;-50
2022/04/04 07:57:56;;;;;;;8.10;7.30;;;8.20;73.30;;;;;;5232749;28;20488;-51
2022/04/04 08:00:26;;;;;;;7.50;6.83;;;8.60;72.40;;;;;;5252113;28;20248;-50
2022/04/04 08:02:57;;;;;;;8.23;7.40;;;9.10;67.10;;;;;;5239385;28;20213;-50
2022/04/04 08:05:27;;;;;;;7.73;6.83;;;9.00;64.70;;;;;;5238968;28;20237;-49
2022/04/04 08:07:58;;;;;;;13.33;7.47;;;9.00;62.00;;;;;;5247582;28;20179;-50
2022/04/04 08:10:28;;;;;;;8.13;7.23;;;8.80;62.40;;;;;;5238873;28;20175;-50
2022/04/04 08:12:59;;;;;;;14.60;7.53;;;8.60;63.10;;;;;;5246021;28;20174;-50
2022/04/04 08:15:30;;;;;;;7.90;7.20;;;8.30;62.80;;;;;;5244893;28;20214;-50
2022/04/04 08:18:02;;;;;;;8.40;7.60;;;8.30;63.60;;;;;;5247337;28;20186;-51
2022/04/04 08:20:34;;;;;;;9.67;8.07;;;8.10;64.20;;;;;;5248971;28;20526;-52
2022/04/04 08:23:04;;;;;;;7.43;6.73;;;8.30;64.40;;;;;;5243586;28;20518;-49
2022/04/04 08:25:35;;;;;;;8.10;7.30;;;8.50;63.20;;;;;;5243827;28;20469;-50
2022/04/04 08:28:06;;;;;;;10.77;6.73;;;8.80;61.90;;;;;;5247055;28;20174;-50
2022/04/04 08:30:37;;;;;;;7.40;6.73;;;9.10;59.00;;;;;;5225626;28;20493;-51
2022/04/04 08:33:07;;;;;;;8.10;6.27;;;9.20;57.60;;;;;;5245375;28;20270;-52
2022/04/04 08:35:38;;;;;;;7.30;6.70;;;9.10;56.40;;;;;;5244270;28;20251;-51
2022/04/04 08:38:08;;;;;;;8.67;7.10;;;9.10;56.30;;;;;;5243978;28;20673;-51
2022/04/04 08:40:40;;;;;;;7.73;6.63;;;8.90;56.90;;;;;;5245491;28;20183;-54
2022/04/04 08:43:11;;;;;;;11.23;7.37;;;8.50;56.80;;;;;;5239801;28;20215;-51
2022/04/04 08:45:42;;;;;;;8.47;7.00;;;8.70;57.40;;;;;;5240990;28;20802;-51
2022/04/04 08:48:13;;;;;;;7.17;6.57;;;8.60;56.70;;;;;;5243960;28;20459;-52
2022/04/04 08:50:44;;;;;;;9.53;5.90;;;8.70;56.50;;;;;;5246080;28;20429;-51
2022/04/04 08:53:15;;;;;;;13.60;6.50;;;8.60;56.10;;;;;;5242609;28;20183;-51
2022/04/04 08:55:46;;;;;;;6.73;6.03;;;8.80;56.20;;;;;;5241512;28;20245;-50
2022/04/04 08:58:16;;;;;;;7.30;6.70;;;8.80;56.40;;;;;;5251562;28;20444;-50
2022/04/04 09:00:47;;;;;;;9.10;7.10;;;9.10;56.10;;;;;;5247800;28;20189;-51
2022/04/04 09:03:29;;;;;;;7.03;6.53;;;9.00;54.70;;;;;;5246775;28;20214;-51
2022/04/04 09:06:06;;;;;;;7.07;6.10;;;9.10;54.40;;;;;;5246968;28;20206;-50
2022/04/04 09:08:44;;;;;;;7.70;6.70;;;9.20;54.00;;;;;;5238264;28;20919;-51
2022/04/04 09:11:15;;;;;;;6.70;5.60;;;9.40;53.00;;;;;;5229793;28;20440;-50
2022/04/04 09:16:53;;;;;;;17.03;6.60;;;9.40;51.80;;;;;;5236589;28;20945;-50
2022/04/04 09:19:30;;;;;;;7.80;6.53;;;9.30;52.20;;;;;;5237679;28;20861;-49
2022/04/04 09:22:09;;;;;;;8.63;6.97;;;9.40;52.00;;;;;;5242392;28;21711;-53
2022/04/04 09:24:47;;;;;;;6.90;5.80;;;9.50;51.30;;;;;;5234511;28;20537;-48
2022/04/04 09:27:21;;;;;;;6.87;5.87;;;9.60;51.00;;;;;;5259378;28;20793;-49
2022/04/04 09:29:56;;;;;;;6.80;5.50;;;9.70;50.20;;;;;;5263396;28;20431;-48
2022/04/04 09:32:42;;;;;;;5.87;5.27;;;9.60;50.10;;;;;;5238560;28;20471;-50
2022/04/04 09:35:14;;;;;;;6.97;6.27;;;9.40;50.40;;;;;;5260023;28;20455;-47
2022/04/04 09:37:50;;;;;;;22.23;7.13;;;9.50;50.00;;;;;;5260401;28;20432;-48
2022/04/04 09:40:24;;;;;;;7.40;6.23;;;9.70;49.60;;;;;;5231412;28;20474;-48
2022/04/04 09:42:59;;;;;;;6.53;5.93;;;9.70;49.70;;;;;;5259564;28;20467;-48
2022/04/04 09:45:30;;;;;;;7.63;6.83;;;9.70;49.20;;;;;;5260119;28;20500;-50
2022/04/04 09:48:09;;;;;;;8.63;6.47;;;9.90;49.00;;;;;;5261134;28;20431;-48
2022/04/04 09:50:46;;;;;;;8.50;6.57;;;9.90;49.00;;;;;;5260699;28;20502;-47
2022/04/04 09:53:27;;;;;;;11.70;7.20;;;9.90;49.00;;;;;;5240392;28;20443;-48
2022/04/04 09:56:00;;;;;;;10.00;6.37;;;9.90;48.40;;;;;;5263998;28;20536;-48
2022/04/04 09:58:31;;;;;;;12.07;6.40;;;10.00;47.00;;;;;;5254610;28;20796;-48
2022/04/04 10:01:02;;;;;;;7.60;6.60;;;10.40;46.40;;;;;;5245783;28;20436;-53
2022/04/04 10:03:36;;;;;;;7.97;7.10;;;10.50;46.00;;;;;;5256512;28;20470;-52
2022/04/04 10:06:09;;;;;;;9.07;7.03;;;10.60;45.50;;;;;;5264128;28;20197;-50
2022/04/04 10:08:43;;;;;;;7.90;6.67;;;10.80;45.10;;;;;;5267936;28;21014;-50
2022/04/04 10:11:15;;;;;;;12.40;6.10;;;10.60;45.10;;;;;;5246536;28;20455;-46
2022/04/04 10:13:47;;;;;;;8.90;6.67;;;10.70;45.00;;;;;;5255596;28;20467;-47
2022/04/04 10:16:18;;;;;;;8.57;7.17;;;10.50;44.50;;;;;;5246711;28;20514;-48
2022/04/04 10:18:50;;;;;;;13.70;7.40;;;10.50;44.50;;;;;;5227603;28;20436;-49
2022/04/04 10:21:21;;;;;;;8.93;6.97;;;10.40;44.70;;;;;;5240391;28;20436;-49
2022/04/04 10:24:01;;;;;;;8.87;6.97;;;10.30;44.90;;;;;;5265995;28;20459;-48
2022/04/04 10:26:33;;;;;;;12.40;6.67;;;10.20;44.80;;;;;;5246067;28;20486;-50
2022/04/04 10:29:13;;;;;;;29.50;7.00;;;10.00;44.80;;;;;;5266937;28;20423;-49
2022/04/04 10:31:52;;;;;;;13.00;6.63;;;9.90;45.80;;;;;;5264278;28;20424;-48
2022/04/04 10:34:25;;;;;;;10.43;6.70;;;9.70;45.80;;;;;;5260360;28;20535;-47
2022/04/04 10:37:01;;;;;;;9.87;6.20;;;9.50;46.60;;;;;;5262953;28;20502;-51
2022/04/04 10:39:43;;;;;;;8.43;6.27;;;9.60;46.80;;;;;;5248410;28;20436;-48
2022/04/04 10:42:26;;;;;;;10.17;6.13;;;9.80;46.90;;;;;;5237294;28;20472;-48
2022/04/04 10:45:08;;;;;;;8.03;6.90;;;10.20;45.90;;;;;;5241705;28;20454;-47
2022/04/04 10:47:44;;;;;;;9.60;6.50;;;9.90;45.90;;;;;;5253030;28;20755;-51
2022/04/04 10:50:24;;;;;;;7.93;5.90;;;10.00;45.40;;;;;;5251509;28;20432;-50
2022/04/04 10:52:58;;;;;;;10.20;6.87;;;10.10;45.50;;;;;;5251292;28;20949;-51
2022/04/04 10:55:41;;;;;;;9.77;6.53;;;10.10;44.90;;;;;;5240257;28;20474;-52
2022/04/04 10:58:19;;;;;;;8.83;6.60;;;10.30;44.50;;;;;;5259590;28;20493;-50
2022/04/04 11:01:04;;;;;;;9.50;6.93;;;9.90;45.10;;;;;;5249182;28;20446;-48
2022/04/04 11:03:37;;;;;;;7.30;6.60;;;10.00;44.70;;;;;;5243166;28;21169;-50
2022/04/04 11:09:18;;;;;;;8.50;6.13;;;10.10;44.00;;;;;;5250530;28;20528;-50
2022/04/04 11:12:00;;;;;;;6.67;6.03;;;10.20;43.50;;;;;;5260029;28;20543;-49
2022/04/04 11:14:31;;;;;;;9.03;6.30;;;10.20;43.70;;;;;;5246823;28;20573;-50
2022/04/04 11:20:10;;;;;;;11.57;5.53;;;10.00;42.80;;;;;;5256475;28;20315;-49
2022/04/04 11:22:51;;;;;;;11.50;6.00;;;9.90;43.80;;;;;;5242484;28;20460;-48
2022/04/04 11:25:26;;;;;;;7.80;5.17;;;9.70;43.90;;;;;;5257440;28;20969;-51
2022/04/04 11:27:57;;;;;;;8.30;5.57;;;9.80;43.80;;;;;;5255950;28;20443;-50
2022/04/04 11:30:28;;;;;;;11.13;6.30;;;9.90;43.40;;;;;;5239818;28;20424;-50
2022/04/04 11:32:59;;;;;;;10.37;5.77;;;9.90;43.40;;;;;;5234269;28;20448;-49
2022/04/04 11:35:32;;;;;;;9.23;4.47;;;9.70;43.90;;;;;;5260499;28;20197;-49
2022/04/04 11:38:06;;;;;;;7.50;5.53;;;9.50;44.20;;;;;;5246474;28;20439;-49
2022/04/04 11:40:38;;;;;;;9.87;5.00;;;9.40;44.50;;;;;;5239797;28;20470;-48
2022/04/04 11:43:11;;;;;;;9.67;6.60;;;9.50;44.50;;;;;;5254443;28;20723;-50
2022/04/04 11:45:43;;;;;;;6.77;4.83;;;9.50;44.80;;;;;;5259219;28;20511;-49
2022/04/04 11:48:23;;;;;;;13.33;5.20;;;9.70;44.70;;;;;;5257642;28;21034;-50
2022/04/04 11:50:58;;;;;;;14.80;5.10;;;9.60;44.90;;;;;;5243639;28;20791;-50
2022/04/04 11:53:35;;;;;;;4.73;4.33;;;9.70;45.50;;;;;;5261773;28;20426;-49
2022/04/04 11:56:10;;;;;;;7.30;4.33;;;9.70;46.00;;;;;;5265170;28;20447;-50
2022/04/04 11:58:48;;;;;;;6.23;4.03;;;9.80;46.50;;;;;;5263277;28;20437;-51
2022/04/04 12:01:19;;;;;;;4.10;3.80;;;9.60;46.40;;;;;;5263724;28;20451;-50
2022/04/04 12:03:50;;;;;;;10.30;3.57;;;9.40;47.00;;;;;;5241305;28;20510;-49
2022/04/04 12:06:21;;;;;;;8.30;3.17;;;9.40;47.20;;;;;;5249393;28;20193;-50
2022/04/04 12:08:53;;;;;;;8.00;5.00;;;9.40;47.60;;;;;;5257507;28;20436;-49
2022/04/04 12:11:28;;;;;;;8.87;4.30;;;9.40;48.10;;;;;;5248234;28;20201;-49
2022/04/04 12:14:00;;;;;;;3.57;2.97;;;9.30;48.20;;;;;;5231822;28;20466;-47
2022/04/04 12:16:32;;;;;;;8.43;3.70;;;9.20;48.50;;;;;;5258425;28;20955;-48
2022/04/04 12:19:06;;;;;;;5.03;3.77;;;8.90;49.50;;;;;;5235465;28;20576;-49
2022/04/04 12:21:38;;;;;;;8.95;3.90;;;8.90;50.90;;;;;;5265904;28;20492;-50
2022/04/04 12:27:13;;;;;;;6.43;4.10;;;8.80;53.80;;;;;;5264307;28;20498;-49
2022/04/04 12:29:45;;;;;;;5.43;4.67;;;8.50;57.10;;;;;;5258290;28;20796;-48
2022/04/04 12:32:19;;;;;;;3.97;3.40;;;8.10;60.80;;;;;;5249250;28;20424;-51
2022/04/04 12:35:06;;;;;;;9.53;3.60;;;7.90;64.40;;;;;;5235901;28;21069;-49
2022/04/04 12:37:42;;;;;;;11.80;3.93;;;7.70;72.10;;;;;;5252656;28;20431;-49
2022/04/04 12:40:17;;;;;;;7.23;3.87;;;7.50;78.30;;;;;;5244435;28;20444;-52
2022/04/04 12:42:53;;;;;;;4.90;4.07;;;7.50;84.60;;;;;;5238143;28;20467;-49
2022/04/04 12:45:23;;;;;;;4.83;4.40;;;7.50;88.20;;;;;;5253199;28;20458;-48
2022/04/04 12:47:54;;;;;;;9.40;4.60;;;7.30;92.40;;;;;;5266759;28;20442;-52
2022/04/04 12:50:35;;;;;;;8.30;5.00;;;7.20;94.40;;;;;;5253898;28;20242;-50
2022/04/04 12:53:08;;;;;;;6.00;4.60;;;7.10;95.30;;;;;;5247401;28;20181;-52
2022/04/04 12:55:40;;;;;;;11.00;5.37;;;7.00;97.00;;;;;;5244807;28;20458;-50
2022/04/04 12:58:24;;;;;;;7.40;4.93;;;6.90;99.90;;;;;;5266363;28;20496;-48
2022/04/04 13:00:55;;;;;;;9.20;5.30;;;6.70;99.90;;;;;;5229602;28;21014;-50
2022/04/04 13:03:27;;;;;;;9.27;5.67;;;6.40;99.90;;;;;;5269280;28;20457;-50
2022/04/04 13:05:58;;;;;;;9.80;5.93;;;6.20;99.90;;;;;;5233721;28;20459;-49
2022/04/04 13:08:29;;;;;;;12.83;6.60;;;5.80;99.90;;;;;;5268522;28;20944;-49
2022/04/04 13:11:08;;;;;;;6.23;5.73;;;5.70;99.90;;;;;;5264927;28;20181;-50
2022/04/04 13:13:56;;;;;;;7.27;5.60;;;5.40;99.90;;;;;;5252646;28;20870;-49
2022/04/04 13:16:36;;;;;;;14.10;7.13;;;5.20;99.90;;;;;;5252438;28;20459;-50
2022/04/04 13:19:13;;;;;;;8.80;7.90;;;5.00;99.90;;;;;;5265125;28;20845;-50
2022/04/04 13:21:46;;;;;;;13.50;7.77;;;4.90;99.90;;;;;;5267676;28;20910;-47
2022/04/04 13:24:18;;;;;;;16.80;7.50;;;4.80;99.90;;;;;;5263025;28;20459;-49
2022/04/04 13:26:49;;;;;;;10.60;7.60;;;4.60;99.90;;;;;;5259264;28;20421;-51
2022/04/04 13:29:21;;;;;;;8.70;7.80;;;4.50;99.90;;;;;;5253803;28;20444;-49
2022/04/04 13:31:51;;;;;;;14.13;9.27;;;4.50;99.90;;;;;;5259764;28;20431;-49
2022/04/04 13:34:22;;;;;;;11.20;9.40;;;4.40;99.90;;;;;;5266778;28;20451;-51
2022/04/04 13:36:52;;;;;;;12.83;8.60;;;4.30;99.90;;;;;;5260266;28;20190;-52